Time;durP1;ratioP1;P1;durP2;ratioP2;P2;SDS_P1;SDS_P2;PMS_P1;PMS_P2;Temp;Humidity;BMP_temperature;BMP_pressure;BME280_temperature;BME280_humidity;BME280_pressure;Samples;Min_cycle;Max_cycle;Signal;HPM_P1;HPM_P2
2022/06/29 00:00:17;;;;;;;5.40;4.78;;;17.40;84.70;;;;;;5035169;28;20072;-82
2022/06/29 00:02:44;;;;;;;5.30;4.80;;;17.40;84.50;;;;;;5017374;28;20478;-82
2022/06/29 00:05:12;;;;;;;4.88;4.43;;;17.40;84.50;;;;;;5017135;28;20029;-82
2022/06/29 00:07:37;;;;;;;5.95;4.47;;;17.30;84.40;;;;;;5034983;28;20033;-82
2022/06/29 00:10:04;;;;;;;7.65;4.75;;;17.30;84.40;;;;;;5035005;28;20021;-82
2022/06/29 00:12:30;;;;;;;5.65;4.65;;;17.30;84.70;;;;;;5034910;28;20034;-82
2022/06/29 00:14:56;;;;;;;5.00;4.47;;;17.20;84.50;;;;;;5034890;28;20079;-82
2022/06/29 00:17:22;;;;;;;8.80;4.97;;;17.20;84.50;;;;;;5034780;28;20064;-81
2022/06/29 00:19:48;;;;;;;7.60;5.20;;;17.10;84.80;;;;;;5034841;28;20052;-83
2022/06/29 00:22:14;;;;;;;6.30;5.15;;;17.10;85.00;;;;;;5034740;28;20049;-82
2022/06/29 00:24:39;;;;;;;6.68;5.28;;;17.00;85.10;;;;;;5034763;28;20033;-81
2022/06/29 00:27:05;;;;;;;7.75;5.20;;;17.00;86.00;;;;;;5034663;28;20385;-82
2022/06/29 00:29:31;;;;;;;6.57;5.00;;;17.00;85.20;;;;;;5034607;28;20013;-82
2022/06/29 00:31:56;;;;;;;5.07;4.57;;;16.90;85.30;;;;;;5034671;28;20108;-82
2022/06/29 00:34:22;;;;;;;6.95;4.68;;;16.90;85.30;;;;;;5034541;28;20025;-82
2022/06/29 00:36:47;;;;;;;5.40;4.78;;;16.90;85.30;;;;;;5034339;28;20025;-82
2022/06/29 00:39:15;;;;;;;4.80;4.40;;;16.90;85.40;;;;;;5034516;28;20516;-82
2022/06/29 00:41:45;;;;;;;5.32;4.22;;;16.90;85.40;;;;;;5034379;28;20388;-82
2022/06/29 00:44:18;;;;;;;5.15;4.55;;;16.90;85.40;;;;;;5034401;28;20021;-81
2022/06/29 00:46:51;;;;;;;6.90;4.32;;;16.90;85.50;;;;;;5034226;28;20041;-82
2022/06/29 00:49:20;;;;;;;7.38;5.07;;;16.80;85.60;;;;;;5034019;28;20474;-80
2022/06/29 00:51:48;;;;;;;7.07;4.70;;;16.80;85.80;;;;;;5034221;28;20052;-81
2022/06/29 00:54:19;;;;;;;5.38;4.75;;;16.80;85.60;;;;;;5034236;28;20477;-79
2022/06/29 00:56:46;;;;;;;4.30;3.90;;;16.90;85.50;;;;;;5034084;28;20120;-80
2022/06/29 00:59:15;;;;;;;4.18;3.83;;;16.90;86.10;;;;;;5034072;28;20216;-79
2022/06/29 01:01:42;;;;;;;7.30;4.22;;;17.00;85.20;;;;;;5034074;28;20025;-80
2022/06/29 01:04:08;;;;;;;5.10;4.60;;;17.00;85.80;;;;;;5033973;28;20423;-81
2022/06/29 01:06:34;;;;;;;4.63;4.22;;;17.00;84.90;;;;;;5032975;28;20092;-81
2022/06/29 01:09:00;;;;;;;5.50;4.53;;;16.90;85.00;;;;;;5033962;28;20017;-80
2022/06/29 01:11:25;;;;;;;6.03;4.45;;;16.90;85.10;;;;;;5033804;28;20028;-81
2022/06/29 01:13:52;;;;;;;5.78;4.38;;;16.80;85.20;;;;;;5033828;28;20375;-79
2022/06/29 01:16:18;;;;;;;6.13;4.80;;;16.80;85.30;;;;;;5033771;28;20022;-80
2022/06/29 01:18:44;;;;;;;5.75;4.95;;;16.70;85.40;;;;;;5016017;28;20022;-80
2022/06/29 01:21:13;;;;;;;6.55;5.15;;;16.70;85.70;;;;;;5033744;28;20107;-80
2022/06/29 01:23:39;;;;;;;6.25;4.65;;;16.60;85.80;;;;;;5033710;28;20160;-81
2022/06/29 01:26:07;;;;;;;4.93;4.53;;;16.70;85.90;;;;;;5015875;28;20044;-80
2022/06/29 01:28:32;;;;;;;6.82;4.82;;;16.60;85.80;;;;;;5033779;28;20059;-80
2022/06/29 01:30:59;;;;;;;5.63;4.57;;;16.70;85.90;;;;;;5033600;28;20025;-79
2022/06/29 01:33:25;;;;;;;7.15;5.40;;;16.70;85.80;;;;;;5033688;28;20085;-81
2022/06/29 01:35:50;;;;;;;9.52;5.57;;;16.60;85.80;;;;;;5033792;28;20048;-80
2022/06/29 01:38:19;;;;;;;5.93;4.60;;;16.50;86.20;;;;;;5033621;28;20466;-79
2022/06/29 01:40:46;;;;;;;6.45;4.68;;;16.50;86.30;;;;;;5033551;28;20420;-81
2022/06/29 01:43:11;;;;;;;6.22;5.20;;;16.50;86.70;;;;;;5033487;28;20101;-81
2022/06/29 01:45:37;;;;;;;6.97;5.20;;;16.50;86.70;;;;;;5033377;28;20108;-81
2022/06/29 01:48:03;;;;;;;5.88;4.75;;;16.40;86.70;;;;;;5033198;28;20033;-81
2022/06/29 01:50:29;;;;;;;9.40;5.22;;;16.40;87.00;;;;;;5015267;28;20041;-80
2022/06/29 01:52:54;;;;;;;5.35;4.75;;;16.40;87.80;;;;;;5033204;28;20025;-81
2022/06/29 01:55:20;;;;;;;6.97;5.20;;;16.40;87.00;;;;;;5033174;28;20017;-81
2022/06/29 01:57:45;;;;;;;5.47;4.97;;;16.30;87.40;;;;;;5033228;28;20025;-81
2022/06/29 02:00:11;;;;;;;6.15;5.55;;;16.40;87.30;;;;;;5032927;28;20018;-81
2022/06/29 02:02:37;;;;;;;5.65;5.15;;;16.40;87.20;;;;;;5033175;28;20386;-80
2022/06/29 02:05:03;;;;;;;6.10;5.25;;;16.30;87.20;;;;;;5032936;28;20104;-81
2022/06/29 02:07:28;;;;;;;7.15;5.60;;;16.30;87.40;;;;;;5033142;28;20506;-81
2022/06/29 02:09:54;;;;;;;6.05;4.60;;;16.30;87.50;;;;;;5033073;28;20060;-81
2022/06/29 02:12:20;;;;;;;5.18;4.60;;;16.40;87.50;;;;;;5032784;28;20063;-79
2022/06/29 02:14:45;;;;;;;5.03;4.53;;;16.40;87.30;;;;;;5032914;28;20052;-80
2022/06/29 02:17:11;;;;;;;7.80;5.70;;;16.50;87.20;;;;;;5032518;28;20021;-79
2022/06/29 02:19:37;;;;;;;7.05;4.93;;;16.50;87.10;;;;;;5015133;28;20026;-80
2022/06/29 02:22:03;;;;;;;7.65;5.05;;;16.50;86.90;;;;;;5032768;28;20029;-78
2022/06/29 02:24:28;;;;;;;7.95;5.63;;;16.40;86.90;;;;;;5032794;28;20017;-79
2022/06/29 02:26:54;;;;;;;9.27;5.78;;;16.40;87.10;;;;;;5032735;28;20040;-79
2022/06/29 02:29:19;;;;;;;7.93;5.22;;;16.40;87.20;;;;;;5032747;28;20025;-81
2022/06/29 02:34:44;;;;;;;6.05;5.30;;;16.50;86.80;;;;;;5033148;28;20059;-80
2022/06/29 02:37:11;;;;;;;5.95;5.35;;;16.50;86.70;;;;;;5032776;28;20021;-81
2022/06/29 02:39:38;;;;;;;8.88;5.43;;;16.50;86.60;;;;;;5032704;28;20033;-82
2022/06/29 02:42:04;;;;;;;7.40;5.70;;;16.50;86.80;;;;;;5032651;28;20017;-81
2022/06/29 02:44:30;;;;;;;5.55;5.05;;;16.40;86.60;;;;;;5032669;28;20364;-81
2022/06/29 02:46:55;;;;;;;6.60;5.28;;;16.40;86.90;;;;;;5032635;28;20048;-81
2022/06/29 02:49:21;;;;;;;6.88;5.28;;;16.40;87.10;;;;;;5032568;28;20432;-80
2022/06/29 02:51:47;;;;;;;5.40;4.90;;;16.30;87.30;;;;;;5032733;28;20058;-82
2022/06/29 02:54:12;;;;;;;6.72;5.80;;;16.30;87.40;;;;;;5032593;28;20030;-82
2022/06/29 02:56:38;;;;;;;6.03;5.10;;;16.30;87.30;;;;;;5032574;28;20017;-81
2022/06/29 02:59:04;;;;;;;8.13;5.20;;;16.40;87.10;;;;;;5032564;28;20474;-81
2022/06/29 03:01:30;;;;;;;6.53;4.85;;;16.30;87.00;;;;;;5032503;28;20025;-81
2022/06/29 03:03:55;;;;;;;6.80;4.70;;;16.30;87.00;;;;;;5032466;28;20060;-82
2022/06/29 03:06:21;;;;;;;6.63;5.38;;;16.40;86.80;;;;;;5014782;28;20043;-81
2022/06/29 03:08:46;;;;;;;6.28;5.68;;;16.30;86.90;;;;;;5032917;28;20463;-81
2022/06/29 03:11:12;;;;;;;6.15;5.00;;;16.30;86.90;;;;;;5032480;28;20022;-81
2022/06/29 03:13:38;;;;;;;5.90;4.93;;;16.30;87.10;;;;;;5039275;28;20022;-80
2022/06/29 03:16:03;;;;;;;4.75;4.25;;;16.30;87.20;;;;;;5034928;28;20027;-81
2022/06/29 03:18:29;;;;;;;5.32;4.82;;;16.30;87.20;;;;;;5033938;28;20474;-81
2022/06/29 03:20:55;;;;;;;4.97;4.47;;;16.30;87.10;;;;;;5034355;28;20081;-81
2022/06/29 03:23:21;;;;;;;5.60;4.68;;;16.30;87.10;;;;;;5033384;28;20060;-81
2022/06/29 03:25:46;;;;;;;4.82;4.18;;;16.30;87.10;;;;;;5032712;28;20470;-81
2022/06/29 03:28:12;;;;;;;5.45;4.88;;;16.30;87.20;;;;;;5032588;28;20033;-82
2022/06/29 03:30:37;;;;;;;6.25;4.63;;;16.30;87.20;;;;;;5018206;28;20021;-82
2022/06/29 03:33:03;;;;;;;4.55;4.15;;;16.30;87.10;;;;;;5036614;28;20025;-81
2022/06/29 03:35:29;;;;;;;4.35;3.95;;;16.40;86.90;;;;;;5018231;28;20017;-81
2022/06/29 03:37:54;;;;;;;4.88;4.38;;;16.40;86.90;;;;;;5035870;28;20070;-81
2022/06/29 03:40:20;;;;;;;4.80;4.35;;;16.40;86.80;;;;;;5036838;28;20434;-81
2022/06/29 03:42:46;;;;;;;4.55;4.15;;;16.30;86.70;;;;;;5047840;28;20063;-81
2022/06/29 03:45:12;;;;;;;5.97;4.88;;;16.40;86.70;;;;;;5053146;28;20033;-81
2022/06/29 03:47:38;;;;;;;7.25;4.80;;;16.40;86.50;;;;;;5036548;28;20148;-81
2022/06/29 03:50:06;;;;;;;13.43;5.03;;;16.40;86.10;;;;;;5035582;28;20046;-81
2022/06/29 03:52:31;;;;;;;6.50;5.18;;;16.40;86.10;;;;;;5035687;28;20417;-81
2022/06/29 03:54:57;;;;;;;5.47;4.93;;;16.40;86.30;;;;;;5035362;28;20032;-80
2022/06/29 03:57:22;;;;;;;7.60;5.18;;;16.40;86.20;;;;;;5035479;28;20036;-82
2022/06/29 03:59:48;;;;;;;7.15;4.22;;;16.40;86.00;;;;;;5017793;28;20068;-82
2022/06/29 04:02:14;;;;;;;6.53;5.57;;;16.40;85.80;;;;;;5035451;28;20079;-81
2022/06/29 04:04:39;;;;;;;5.82;4.88;;;16.40;85.50;;;;;;5035377;28;20017;-82
2022/06/29 04:07:05;;;;;;;4.80;4.38;;;16.50;85.60;;;;;;5035158;28;20043;-80
2022/06/29 04:09:30;;;;;;;5.35;4.75;;;16.50;85.40;;;;;;5035285;28;20017;-81
2022/06/29 04:11:56;;;;;;;4.32;3.92;;;16.50;85.20;;;;;;5035336;28;20033;-81
2022/06/29 04:14:24;;;;;;;4.80;4.30;;;16.50;85.00;;;;;;5036037;28;20033;-81
2022/06/29 04:16:54;;;;;;;4.90;4.50;;;16.60;84.90;;;;;;5035908;28;20017;-81
2022/06/29 04:19:20;;;;;;;7.05;4.95;;;16.60;84.80;;;;;;5035711;28;20535;-81
2022/06/29 04:21:46;;;;;;;9.93;4.65;;;16.60;84.50;;;;;;5036124;28;20052;-81
2022/06/29 04:24:12;;;;;;;6.15;5.40;;;16.60;84.40;;;;;;5035989;28;20029;-81
2022/06/29 04:26:38;;;;;;;5.28;4.78;;;16.60;84.40;;;;;;5018080;28;20046;-81
2022/06/29 04:29:04;;;;;;;6.43;4.60;;;16.70;84.70;;;;;;5035652;28;20560;-81
2022/06/29 04:31:30;;;;;;;8.13;4.72;;;16.60;84.60;;;;;;5036130;28;20041;-79
2022/06/29 04:33:55;;;;;;;5.55;5.05;;;16.60;84.80;;;;;;5040737;28;20014;-81
2022/06/29 04:36:21;;;;;;;5.60;4.70;;;16.60;84.70;;;;;;5041491;28;20029;-81
2022/06/29 04:38:47;;;;;;;10.18;5.25;;;16.70;84.90;;;;;;5042694;28;20113;-81
2022/06/29 04:41:13;;;;;;;8.25;5.28;;;16.60;85.00;;;;;;5041692;28;20045;-80
2022/06/29 04:43:38;;;;;;;5.90;4.78;;;16.60;84.90;;;;;;5042660;28;20545;-81
2022/06/29 04:46:19;;;;;;;5.25;4.75;;;16.60;84.80;;;;;;5023633;28;20057;-81
2022/06/29 04:48:46;;;;;;;5.15;4.38;;;16.70;85.00;;;;;;5044633;28;20100;-81
2022/06/29 04:51:12;;;;;;;5.28;4.60;;;16.80;85.00;;;;;;5042351;28;20120;-80
2022/06/29 04:53:38;;;;;;;6.57;4.20;;;16.80;84.60;;;;;;5044728;28;20056;-80
2022/06/29 04:56:03;;;;;;;5.00;3.88;;;16.90;84.50;;;;;;5040122;28;20076;-81
2022/06/29 04:58:29;;;;;;;4.75;4.28;;;17.00;84.30;;;;;;5034413;28;20029;-81
2022/06/29 05:00:54;;;;;;;4.75;4.15;;;17.10;84.10;;;;;;5034173;28;20096;-82
2022/06/29 05:03:20;;;;;;;5.15;4.60;;;17.20;83.80;;;;;;5034522;28;20029;-81
2022/06/29 05:05:47;;;;;;;6.07;4.35;;;17.20;83.50;;;;;;5034201;28;20140;-83
2022/06/29 05:08:14;;;;;;;5.20;4.47;;;17.20;83.20;;;;;;5034113;28;20056;-81
2022/06/29 05:10:40;;;;;;;5.63;4.60;;;17.30;83.20;;;;;;5034016;28;20053;-81
2022/06/29 05:13:08;;;;;;;7.18;4.47;;;17.30;83.80;;;;;;5016306;28;20025;-83
2022/06/29 05:15:34;;;;;;;8.05;4.65;;;17.40;82.80;;;;;;5016318;28;20029;-80
2022/06/29 05:18:00;;;;;;;13.55;4.80;;;17.40;82.30;;;;;;5033567;28;20052;-81
2022/06/29 05:20:25;;;;;;;5.25;4.75;;;17.50;82.10;;;;;;5039731;28;20459;-83
2022/06/29 05:22:52;;;;;;;8.63;4.60;;;17.50;81.90;;;;;;5015868;28;20063;-81
2022/06/29 05:25:18;;;;;;;6.45;4.38;;;17.60;81.70;;;;;;5033702;28;20021;-82
2022/06/29 05:27:44;;;;;;;4.18;3.70;;;17.70;81.60;;;;;;5033719;28;20026;-82
2022/06/29 05:30:10;;;;;;;6.65;4.22;;;17.70;81.40;;;;;;5033130;28;20028;-82
2022/06/29 05:32:35;;;;;;;4.20;3.65;;;17.80;81.30;;;;;;5033016;28;20032;-81
2022/06/29 05:35:02;;;;;;;5.50;4.45;;;17.90;81.40;;;;;;5033398;28;20025;-80
2022/06/29 05:37:29;;;;;;;5.78;4.15;;;17.90;81.00;;;;;;5033266;28;20046;-80
2022/06/29 05:39:55;;;;;;;7.15;4.32;;;18.00;80.90;;;;;;5033218;28;20020;-81
2022/06/29 05:42:20;;;;;;;5.85;3.80;;;18.00;80.70;;;;;;5033176;28;20029;-82
2022/06/29 05:44:46;;;;;;;4.32;3.90;;;18.00;80.70;;;;;;5033157;28;20025;-82
2022/06/29 05:47:11;;;;;;;6.60;4.22;;;18.10;80.80;;;;;;5032923;28;20101;-81
2022/06/29 05:49:37;;;;;;;7.43;4.82;;;18.20;80.50;;;;;;5033019;28;20037;-78
2022/06/29 05:52:03;;;;;;;4.10;3.70;;;18.20;81.40;;;;;;5032788;28;20065;-76
2022/06/29 05:54:29;;;;;;;13.10;8.05;;;18.20;80.60;;;;;;5015083;28;20116;-78
2022/06/29 05:56:55;;;;;;;14.90;10.15;;;18.30;80.90;;;;;;5032758;28;20079;-81
2022/06/29 05:59:20;;;;;;;7.57;5.60;;;18.30;81.20;;;;;;5015238;28;20029;-78
2022/06/29 06:01:46;;;;;;;6.43;4.90;;;18.30;81.40;;;;;;5032869;28;20025;-79
2022/06/29 06:04:11;;;;;;;8.18;4.68;;;18.40;81.30;;;;;;5050031;28;20032;-79
2022/06/29 06:06:37;;;;;;;6.43;4.70;;;18.40;81.40;;;;;;5042730;28;20036;-77
2022/06/29 06:09:03;;;;;;;5.05;4.25;;;18.40;81.20;;;;;;5033786;28;20037;-80
2022/06/29 06:11:29;;;;;;;6.97;4.35;;;18.40;81.20;;;;;;5032868;28;20092;-80
2022/06/29 06:13:55;;;;;;;4.22;3.78;;;18.50;81.50;;;;;;5032910;28;20474;-74
2022/06/29 06:16:20;;;;;;;5.20;4.25;;;18.50;81.70;;;;;;5032493;28;20087;-75
2022/06/29 06:18:46;;;;;;;4.93;4.45;;;18.50;81.90;;;;;;5032529;28;20017;-74
2022/06/29 06:21:11;;;;;;;6.70;4.30;;;18.50;81.90;;;;;;5032567;28;20084;-74
2022/06/29 06:23:37;;;;;;;5.15;4.40;;;18.50;82.00;;;;;;5032409;28;20021;-74
2022/06/29 06:26:03;;;;;;;5.95;4.60;;;18.60;81.90;;;;;;5032361;28;20072;-75
2022/06/29 06:28:28;;;;;;;6.68;4.43;;;18.70;81.90;;;;;;5032308;28;20056;-75
2022/06/29 06:30:54;;;;;;;4.78;4.10;;;18.80;81.60;;;;;;5032611;28;20435;-74
2022/06/29 06:33:20;;;;;;;6.28;4.22;;;19.00;81.40;;;;;;5032304;28;20043;-75
2022/06/29 06:35:45;;;;;;;3.78;3.47;;;19.10;81.00;;;;;;5032510;28;20091;-75
2022/06/29 06:38:11;;;;;;;6.78;4.95;;;19.30;80.50;;;;;;5032340;28;20053;-76
2022/06/29 06:43:21;;;;;;;6.13;4.05;;;19.70;79.30;;;;;;5032561;28;20532;-75
2022/06/29 06:45:47;;;;;;;6.35;4.25;;;19.80;78.00;;;;;;5032298;28;20105;-74
2022/06/29 06:48:12;;;;;;;4.95;4.18;;;20.00;77.60;;;;;;5032421;28;20034;-74
2022/06/29 06:50:38;;;;;;;6.65;5.20;;;20.30;77.00;;;;;;5032342;28;20046;-75
2022/06/29 06:53:03;;;;;;;7.20;4.28;;;20.50;75.40;;;;;;5032570;28;20083;-75
2022/06/29 06:55:29;;;;;;;7.80;5.32;;;20.60;74.60;;;;;;5032459;28;20101;-76
2022/06/29 06:57:55;;;;;;;3.58;3.25;;;20.80;73.40;;;;;;5032317;28;20538;-75
2022/06/29 07:00:21;;;;;;;6.30;5.25;;;20.90;73.20;;;;;;5032249;28;20026;-75
2022/06/29 07:02:46;;;;;;;8.40;4.65;;;21.10;72.90;;;;;;5032118;28;20029;-77
2022/06/29 07:05:12;;;;;;;7.15;5.40;;;21.20;72.60;;;;;;5035358;28;21908;-75
2022/06/29 07:07:38;;;;;;;7.10;4.75;;;21.20;72.00;;;;;;5035977;28;20042;-77
2022/06/29 07:10:04;;;;;;;5.00;4.45;;;21.00;71.30;;;;;;5036100;28;20071;-76
2022/06/29 07:12:30;;;;;;;4.47;3.92;;;20.80;72.40;;;;;;5035922;28;20030;-76
2022/06/29 07:14:55;;;;;;;7.07;4.40;;;20.60;73.10;;;;;;5035722;28;20025;-76
2022/06/29 07:17:21;;;;;;;5.57;3.75;;;20.60;73.40;;;;;;5035860;28;20072;-76
2022/06/29 07:19:46;;;;;;;7.00;4.03;;;20.80;72.90;;;;;;5035886;28;20445;-75
2022/06/29 07:22:12;;;;;;;8.23;4.05;;;21.00;72.40;;;;;;5035903;28;20029;-81
2022/06/29 07:24:38;;;;;;;5.38;3.95;;;20.90;71.90;;;;;;5035997;28;20026;-76
2022/06/29 07:27:04;;;;;;;12.70;8.73;;;21.00;72.20;;;;;;5035560;28;20048;-74
2022/06/29 07:29:29;;;;;;;18.48;12.50;;;21.10;72.00;;;;;;5035599;28;20041;-76
2022/06/29 07:31:55;;;;;;;5.60;4.40;;;21.30;71.40;;;;;;5017855;28;20025;-77
2022/06/29 07:34:20;;;;;;;7.45;4.68;;;21.50;70.20;;;;;;5035617;28;20109;-81
2022/06/29 07:36:46;;;;;;;8.40;5.40;;;21.50;70.20;;;;;;5035450;28;20026;-76
2022/06/29 07:39:11;;;;;;;4.75;4.28;;;21.50;69.70;;;;;;5035705;28;20151;-76
2022/06/29 07:41:37;;;;;;;6.25;4.75;;;21.50;70.50;;;;;;5035335;28;20026;-77
2022/06/29 07:44:06;;;;;;;4.68;4.25;;;21.50;70.50;;;;;;5037692;28;20025;-76
2022/06/29 07:46:31;;;;;;;7.72;3.70;;;21.50;70.20;;;;;;5037984;28;20033;-79
2022/06/29 07:48:57;;;;;;;5.97;4.35;;;21.30;70.60;;;;;;5018545;28;20021;-77
2022/06/29 07:51:22;;;;;;;5.68;3.92;;;21.30;71.10;;;;;;5035019;28;20049;-76
2022/06/29 07:53:48;;;;;;;4.50;4.00;;;21.40;70.80;;;;;;5035117;28;20390;-75
2022/06/29 07:56:14;;;;;;;7.35;5.05;;;21.40;70.60;;;;;;5035283;28;20104;-76
2022/06/29 07:58:39;;;;;;;6.07;4.07;;;21.30;71.00;;;;;;5035308;28;20072;-75
2022/06/29 08:01:05;;;;;;;5.55;4.72;;;21.50;70.60;;;;;;5035353;28;20492;-76
2022/06/29 08:03:33;;;;;;;4.45;3.50;;;21.50;70.10;;;;;;5035425;28;20029;-76
2022/06/29 08:06:00;;;;;;;5.03;3.95;;;21.20;71.60;;;;;;5034911;28;20021;-76
2022/06/29 08:08:26;;;;;;;5.85;3.45;;;21.40;70.90;;;;;;5035821;28;20064;-75
2022/06/29 08:10:52;;;;;;;8.07;4.45;;;21.80;69.90;;;;;;5035251;28;20421;-76
2022/06/29 08:13:17;;;;;;;6.53;4.10;;;22.00;69.50;;;;;;5035089;28;20038;-76
2022/06/29 08:15:45;;;;;;;7.47;3.80;;;22.00;68.90;;;;;;5034360;28;20025;-79
2022/06/29 08:18:13;;;;;;;6.68;3.72;;;22.00;68.90;;;;;;5034784;28;20021;-77
2022/06/29 08:20:39;;;;;;;4.47;3.85;;;22.00;69.00;;;;;;5034485;28;20026;-76
2022/06/29 08:23:05;;;;;;;5.43;4.10;;;22.00;68.20;;;;;;5034612;28;20027;-77
2022/06/29 08:25:31;;;;;;;5.47;3.58;;;22.00;68.70;;;;;;5034637;28;20112;-76
2022/06/29 08:27:58;;;;;;;4.18;3.53;;;22.10;68.70;;;;;;5038571;28;20502;-76
2022/06/29 08:30:23;;;;;;;9.18;4.00;;;22.40;68.40;;;;;;5036412;28;20048;-76
2022/06/29 08:32:49;;;;;;;6.30;3.60;;;22.70;66.90;;;;;;5034864;28;20381;-77
2022/06/29 08:35:17;;;;;;;3.67;3.30;;;22.60;67.00;;;;;;5034452;28;20481;-76
2022/06/29 08:37:44;;;;;;;3.33;2.95;;;22.60;65.90;;;;;;5034518;28;20029;-77
2022/06/29 08:40:13;;;;;;;7.32;3.83;;;22.80;65.50;;;;;;5034176;28;20025;-79
2022/06/29 08:42:39;;;;;;;6.20;3.83;;;23.00;64.70;;;;;;5034094;28;20018;-75
2022/06/29 08:45:07;;;;;;;5.85;3.95;;;22.60;64.80;;;;;;5034253;28;20372;-75
2022/06/29 08:47:33;;;;;;;4.15;3.45;;;22.40;66.00;;;;;;5034225;28;20025;-76
2022/06/29 08:49:58;;;;;;;7.55;5.90;;;22.40;65.80;;;;;;5033725;28;20488;-80
2022/06/29 08:52:28;;;;;;;6.10;5.47;;;22.40;64.90;;;;;;5033806;28;20159;-76
2022/06/29 08:54:54;;;;;;;7.80;3.72;;;22.40;65.10;;;;;;5033889;28;20025;-76
2022/06/29 08:57:21;;;;;;;5.15;3.65;;;22.50;65.10;;;;;;5033905;28;20025;-75
2022/06/29 08:59:48;;;;;;;4.68;2.92;;;22.70;65.50;;;;;;5033678;28;20151;-76
2022/06/29 09:02:14;;;;;;;6.78;3.55;;;22.90;65.30;;;;;;5033662;28;20064;-76
2022/06/29 09:04:40;;;;;;;13.55;11.68;;;23.10;64.90;;;;;;5033755;28;20418;-76
2022/06/29 09:07:05;;;;;;;43.08;29.95;;;23.30;65.00;;;;;;5015866;28;20119;-76
2022/06/29 09:09:31;;;;;;;7.22;3.83;;;23.50;64.80;;;;;;5033885;28;20096;-76
2022/06/29 09:11:56;;;;;;;7.05;3.47;;;23.60;63.00;;;;;;5033788;28;20041;-75
2022/06/29 09:14:24;;;;;;;4.32;3.10;;;23.70;64.60;;;;;;5033689;28;20025;-76
2022/06/29 09:16:57;;;;;;;4.00;2.90;;;23.90;61.30;;;;;;5033774;28;20049;-80
2022/06/29 09:19:26;;;;;;;3.20;2.67;;;23.90;61.70;;;;;;5033793;28;20029;-75
2022/06/29 09:21:54;;;;;;;4.88;2.75;;;23.90;61.50;;;;;;5033848;28;20433;-76
2022/06/29 09:24:28;;;;;;;4.55;2.90;;;24.20;62.40;;;;;;5033689;28;20057;-82
2022/06/29 09:27:03;;;;;;;3.97;2.67;;;24.40;58.00;;;;;;5014919;28;20033;-82
2022/06/29 09:29:35;;;;;;;5.33;2.83;;;24.60;57.90;;;;;;5033532;28;20022;-83
2022/06/29 09:32:04;;;;;;;6.28;3.22;;;24.80;57.70;;;;;;5033452;28;20075;-83
2022/06/29 09:34:40;;;;;;;3.22;2.58;;;25.00;55.60;;;;;;5033364;28;20378;-83
2022/06/29 09:37:09;;;;;;;11.30;8.98;;;24.80;55.20;;;;;;5033433;28;20053;-82
2022/06/29 09:39:36;;;;;;;2.80;2.50;;;24.80;55.00;;;;;;5033282;28;20045;-82
2022/06/29 09:42:10;;;;;;;5.50;3.20;;;24.70;54.80;;;;;;5015150;28;20399;-83
2022/06/29 09:44:36;;;;;;;4.22;2.45;;;24.50;54.60;;;;;;5033291;28;20029;-82
2022/06/29 09:47:05;;;;;;;4.60;2.50;;;24.20;56.10;;;;;;5033131;28;20033;-82
2022/06/29 09:49:34;;;;;;;4.70;2.45;;;24.30;57.30;;;;;;5032981;28;20045;-82
2022/06/29 09:52:01;;;;;;;3.75;3.10;;;24.30;55.70;;;;;;5033160;28;20100;-82
2022/06/29 09:54:39;;;;;;;4.68;3.30;;;24.30;55.40;;;;;;5032824;28;20026;-82
2022/06/29 09:57:06;;;;;;;24.17;18.52;;;24.30;56.00;;;;;;5032821;28;20025;-82
2022/06/29 10:02:37;;;;;;;5.05;3.30;;;24.60;55.80;;;;;;5033244;28;20060;-83
2022/06/29 10:05:08;;;;;;;4.75;2.50;;;24.70;55.50;;;;;;5032687;28;20032;-83
2022/06/29 10:07:37;;;;;;;2.40;2.20;;;24.70;54.90;;;;;;5032660;28;20025;-82
2022/06/29 10:10:06;;;;;;;7.82;3.10;;;24.90;55.00;;;;;;5032526;28;20013;-82
2022/06/29 10:16:02;;;;;;;11.52;3.05;;;25.10;53.10;;;;;;5032723;28;20079;-83
2022/06/29 10:18:55;;;;;;;4.07;3.20;;;25.10;53.20;;;;;;5032791;28;20030;-82
2022/06/29 10:21:23;;;;;;;4.70;2.58;;;24.80;54.40;;;;;;5032567;28;20021;-82
2022/06/29 10:23:54;;;;;;;8.00;3.33;;;25.00;53.60;;;;;;5032552;28;20071;-82
2022/06/29 10:26:35;;;;;;;4.00;2.67;;;25.20;52.40;;;;;;5032441;28;20048;-81
2022/06/29 10:29:09;;;;;;;6.78;3.78;;;25.20;51.80;;;;;;5032405;28;20107;-83
2022/06/29 10:31:50;;;;;;;4.63;3.22;;;25.10;52.30;;;;;;5032628;28;20029;-81
2022/06/29 10:37:21;;;;;;;9.80;3.20;;;24.80;55.50;;;;;;5033391;28;20394;-81
2022/06/29 10:39:50;;;;;;;6.20;3.42;;;23.90;58.80;;;;;;5039564;28;20022;-82
2022/06/29 10:45:13;;;;;;;2.83;2.63;;;23.60;60.20;;;;;;5038991;28;20059;-83
2022/06/29 10:47:39;;;;;;;5.40;3.00;;;23.40;60.80;;;;;;5038985;28;20102;-82
2022/06/29 10:50:14;;;;;;;7.20;3.08;;;23.40;61.80;;;;;;5038465;28;20073;-82
2022/06/29 10:52:41;;;;;;;7.70;3.40;;;23.40;62.80;;;;;;5039133;28;20025;-82
2022/06/29 10:55:07;;;;;;;6.10;2.55;;;23.40;62.40;;;;;;5038974;28;20416;-82
2022/06/29 10:57:34;;;;;;;6.03;3.25;;;23.50;62.90;;;;;;5021204;28;20167;-82
2022/06/29 11:00:00;;;;;;;4.93;3.60;;;23.50;62.70;;;;;;5039162;28;20017;-81
2022/06/29 11:02:25;;;;;;;3.55;3.00;;;23.60;61.90;;;;;;5021182;28;20414;-81
2022/06/29 11:04:51;;;;;;;7.78;3.45;;;23.70;62.20;;;;;;5061770;28;20045;-81
2022/06/29 11:12:48;;;;;;;9.73;2.75;;;23.90;60.60;;;;;;5039276;28;20044;-82
2022/06/29 11:15:40;;;;;;;3.38;3.08;;;24.10;60.60;;;;;;5038775;28;20029;-82
2022/06/29 11:18:13;;;;;;;5.50;2.60;;;24.20;59.90;;;;;;5039352;28;20108;-82
2022/06/29 11:20:41;;;;;;;3.90;3.33;;;24.20;59.20;;;;;;5038618;28;20072;-82
2022/06/29 11:23:11;;;;;;;5.05;2.92;;;24.30;58.80;;;;;;5038618;28;20053;-82
2022/06/29 11:25:38;;;;;;;5.70;2.50;;;24.40;58.40;;;;;;5039078;28;20025;-81
2022/06/29 11:28:04;;;;;;;4.35;2.83;;;24.40;58.20;;;;;;5039039;28;20044;-81
2022/06/29 11:30:30;;;;;;;4.93;2.70;;;24.40;58.40;;;;;;5020683;28;20524;-81
2022/06/29 11:32:56;;;;;;;2.72;2.53;;;24.60;58.00;;;;;;5038667;28;20025;-81
2022/06/29 11:35:25;;;;;;;5.07;2.42;;;24.50;58.70;;;;;;5020726;28;20120;-82
2022/06/29 11:37:53;;;;;;;21.30;17.73;;;24.70;57.50;;;;;;5038648;28;20025;-82
2022/06/29 11:40:42;;;;;;;7.70;5.30;;;24.90;57.40;;;;;;5038596;28;20075;-82
2022/06/29 11:43:12;;;;;;;6.85;3.70;;;25.20;56.00;;;;;;5038935;28;20021;-82
2022/06/29 11:45:46;;;;;;;5.68;3.10;;;25.50;55.20;;;;;;5038635;28;20155;-83
2022/06/29 11:48:26;;;;;;;6.72;3.00;;;25.50;54.70;;;;;;5038758;28;20080;-82
2022/06/29 11:50:57;;;;;;;5.72;2.70;;;25.40;55.20;;;;;;5035020;28;20072;-82
2022/06/29 11:53:47;;;;;;;4.15;2.70;;;25.60;54.80;;;;;;5035491;28;20025;-82
2022/06/29 11:56:14;;;;;;;5.70;2.97;;;25.60;53.30;;;;;;5035269;28;20053;-81
2022/06/29 11:58:43;;;;;;;3.45;2.40;;;25.60;52.00;;;;;;5035364;28;20022;-79
2022/06/29 12:01:14;;;;;;;6.20;2.90;;;25.90;53.10;;;;;;5035252;28;20060;-80
2022/06/29 12:03:54;;;;;;;7.93;2.97;;;26.10;53.50;;;;;;5035338;28;20022;-82
2022/06/29 12:06:22;;;;;;;3.40;2.47;;;26.20;53.10;;;;;;5035351;28;20394;-81
2022/06/29 12:08:49;;;;;;;4.75;2.80;;;26.50;49.50;;;;;;5035304;28;20053;-80
2022/06/29 12:11:14;;;;;;;6.53;3.03;;;26.60;48.00;;;;;;5035425;28;20064;-82
2022/06/29 12:13:40;;;;;;;10.85;7.70;;;26.60;49.00;;;;;;5035318;28;20443;-81
2022/06/29 12:16:06;;;;;;;5.32;2.60;;;26.70;48.50;;;;;;5035147;28;20489;-81
2022/06/29 12:18:31;;;;;;;6.78;2.40;;;26.60;48.40;;;;;;5017395;28;20035;-81
2022/06/29 12:20:57;;;;;;;7.25;2.97;;;26.80;48.10;;;;;;5035341;28;20354;-81
2022/06/29 12:23:23;;;;;;;6.78;2.72;;;26.80;47.10;;;;;;5034994;28;20100;-82
2022/06/29 12:25:49;;;;;;;5.05;2.55;;;25.90;48.80;;;;;;5034930;28;20033;-82
2022/06/29 12:28:15;;;;;;;3.03;1.98;;;25.90;49.30;;;;;;5034877;28;20061;-81
2022/06/29 12:30:41;;;;;;;4.93;2.65;;;26.00;50.50;;;;;;5034626;28;20022;-82
2022/06/29 12:33:09;;;;;;;11.15;2.67;;;26.70;49.60;;;;;;5034425;28;20044;-82
2022/06/29 12:35:36;;;;;;;4.82;2.30;;;27.30;47.80;;;;;;5034898;28;20041;-82
2022/06/29 12:38:02;;;;;;;6.15;2.25;;;27.60;45.40;;;;;;5034671;28;20047;-83
2022/06/29 12:40:31;;;;;;;9.13;2.90;;;27.60;44.10;;;;;;5034810;28;20072;-84
2022/06/29 12:42:57;;;;;;;4.95;2.67;;;27.70;44.60;;;;;;5034866;28;20151;-81
2022/06/29 12:45:24;;;;;;;3.78;2.28;;;27.80;43.90;;;;;;5034699;28;20517;-82
2022/06/29 12:47:51;;;;;;;5.13;2.05;;;27.80;45.50;;;;;;5034420;28;20474;-82
2022/06/29 12:50:17;;;;;;;6.95;2.38;;;27.50;44.60;;;;;;5034316;28;20064;-83
2022/06/29 12:52:46;;;;;;;7.82;2.20;;;27.00;45.00;;;;;;5034593;28;20516;-83
2022/06/29 12:55:13;;;;;;;3.20;2.15;;;26.60;43.50;;;;;;5035224;28;20097;-83
2022/06/29 12:57:39;;;;;;;4.30;2.13;;;26.30;42.40;;;;;;5039999;28;20493;-83
2022/06/29 13:00:05;;;;;;;5.47;2.47;;;26.40;43.90;;;;;;5039590;28;20060;-81
2022/06/29 13:02:31;;;;;;;6.55;2.28;;;26.50;43.40;;;;;;5040828;28;20021;-82
2022/06/29 13:04:57;;;;;;;10.43;2.85;;;26.40;44.40;;;;;;5037347;28;20014;-82
2022/06/29 13:07:26;;;;;;;3.80;2.05;;;26.60;44.20;;;;;;5035815;28;20421;-82